createdAt,value
2017-08-13T00:00:54.316Z,25.97
2017-08-13T00:03:21.753Z,31.40
2017-08-13T00:05:49.173Z,28.00
2017-08-13T00:08:17.373Z,23.93
2017-08-13T00:10:44.793Z,26.27
2017-08-13T00:13:13.040Z,27.87
2017-08-13T00:15:40.472Z,27.63
2017-08-13T00:18:07.897Z,35.30
2017-08-13T00:20:35.331Z,29.83
2017-08-13T00:23:02.739Z,26.20
2017-08-13T00:25:30.165Z,27.50
2017-08-13T00:27:57.600Z,25.13
2017-08-13T00:30:25.796Z,24.77
2017-08-13T00:32:53.213Z,24.53
2017-08-13T00:35:20.680Z,27.23
2017-08-13T00:37:48.116Z,26.80
2017-08-13T00:40:15.533Z,25.10
2017-08-13T00:42:42.961Z,25.50
2017-08-13T00:45:10.436Z,24.67
2017-08-13T00:47:37.872Z,27.80
2017-08-13T00:50:06.069Z,22.47
2017-08-13T00:52:33.496Z,22.27
2017-08-13T00:55:01.688Z,24.33
2017-08-13T00:57:29.112Z,22.50
2017-08-13T00:59:56.539Z,21.03
2017-08-13T01:02:24.790Z,26.53
2017-08-13T01:04:52.224Z,23.80
2017-08-13T01:07:19.682Z,21.47
2017-08-13T01:09:47.872Z,23.57
2017-08-13T01:12:15.296Z,23.20
2017-08-13T01:14:43.509Z,23.70
2017-08-13T01:17:10.920Z,20.30
2017-08-13T01:19:39.117Z,25.90
2017-08-13T01:22:06.548Z,20.90
2017-08-13T01:24:34.747Z,25.53
2017-08-13T01:27:02.188Z,22.70
2017-08-13T01:29:30.393Z,23.60
2017-08-13T01:31:57.808Z,23.40
2017-08-13T01:34:26.003Z,22.20
2017-08-13T01:36:53.466Z,23.30
2017-08-13T01:39:20.892Z,23.80
2017-08-13T01:41:49.092Z,28.87
2017-08-13T01:44:16.521Z,25.13
2017-08-13T01:46:44.043Z,20.70
2017-08-13T01:49:11.466Z,18.60
2017-08-13T01:51:38.908Z,20.37
2017-08-13T01:54:07.092Z,17.30
2017-08-13T01:56:34.530Z,23.27
2017-08-13T01:59:02.749Z,16.57
2017-08-13T02:01:30.186Z,20.83
2017-08-13T02:03:57.616Z,18.47
2017-08-13T02:06:25.058Z,13.13
2017-08-13T02:08:52.468Z,17.57
2017-08-13T02:11:19.897Z,18.67
2017-08-13T02:13:47.338Z,21.33
2017-08-13T02:16:15.533Z,19.13
2017-08-13T02:18:42.988Z,19.53
2017-08-13T02:21:11.160Z,17.17
2017-08-13T02:23:38.602Z,13.17
2017-08-13T02:26:06.033Z,17.33
2017-08-13T02:28:33.461Z,14.30
2017-08-13T02:31:00.881Z,12.90
2017-08-13T02:33:28.312Z,16.93
2017-08-13T02:35:55.744Z,17.33
2017-08-13T02:38:23.178Z,15.83
2017-08-13T02:40:50.609Z,12.63
2017-08-13T02:43:18.040Z,10.90
2017-08-13T02:45:45.465Z,12.83
2017-08-13T02:48:12.876Z,14.80
2017-08-13T02:50:40.309Z,11.03
2017-08-13T02:53:08.513Z,15.77
2017-08-13T02:55:35.941Z,12.00
2017-08-13T02:58:04.133Z,15.97
2017-08-13T03:00:31.564Z,18.07
2017-08-13T03:02:59.761Z,19.07
2017-08-13T03:05:27.210Z,19.20
2017-08-13T03:07:54.632Z,16.73
2017-08-13T03:10:22.060Z,23.83
2017-08-13T03:12:49.520Z,16.53
2017-08-13T03:15:16.949Z,16.73
2017-08-13T03:17:44.391Z,19.70
2017-08-13T03:20:11.819Z,23.70
2017-08-13T03:22:40.041Z,21.13
2017-08-13T03:25:07.490Z,17.20
2017-08-13T03:27:34.995Z,20.40
2017-08-13T03:30:02.449Z,19.13
2017-08-13T03:32:29.868Z,28.20
2017-08-13T03:34:57.398Z,15.57
2017-08-13T03:37:24.809Z,20.20
2017-08-13T03:39:52.236Z,22.20
2017-08-13T03:42:20.427Z,19.53
2017-08-13T03:44:47.854Z,17.43
2017-08-13T03:47:16.048Z,19.87
2017-08-13T03:49:43.484Z,26.77
2017-08-13T03:52:11.673Z,31.00
2017-08-13T03:54:39.116Z,25.87
2017-08-13T03:57:07.339Z,31.30
2017-08-13T03:59:34.764Z,35.27
2017-08-13T04:02:02.264Z,31.63
2017-08-13T04:04:29.708Z,29.13
2017-08-13T04:06:57.129Z,30.43
2017-08-13T04:09:24.556Z,29.40
2017-08-13T04:11:52.000Z,22.17
2017-08-13T04:14:19.420Z,26.53
2017-08-13T04:16:46.859Z,19.00
2017-08-13T04:19:14.317Z,24.10
2017-08-13T04:21:41.755Z,25.07
2017-08-13T04:24:09.196Z,25.43
2017-08-13T04:26:36.621Z,24.60
2017-08-13T04:29:04.045Z,21.30
2017-08-13T04:31:31.477Z,20.53
2017-08-13T04:33:59.696Z,23.13
2017-08-13T04:36:27.134Z,34.13
2017-08-13T04:38:54.549Z,21.03
2017-08-13T04:41:21.982Z,23.53
2017-08-13T04:43:49.398Z,19.80
2017-08-13T04:46:16.845Z,19.23
2017-08-13T04:48:44.274Z,14.83
2017-08-13T04:51:12.478Z,15.87
2017-08-13T04:53:39.909Z,21.43
2017-08-13T04:56:07.367Z,19.73
2017-08-13T04:58:34.789Z,17.50
2017-08-13T05:01:02.237Z,23.20
2017-08-13T05:03:29.660Z,16.53
2017-08-13T05:05:57.094Z,16.90
2017-08-13T05:08:24.516Z,14.30
2017-08-13T05:10:51.944Z,16.00
2017-08-13T05:13:20.136Z,16.23
2017-08-13T05:15:47.583Z,17.40
2017-08-13T05:18:15.035Z,19.73
2017-08-13T05:20:42.475Z,17.57
2017-08-13T05:23:09.904Z,15.33
2017-08-13T05:25:37.331Z,13.37
2017-08-13T05:28:04.757Z,14.43
2017-08-13T05:30:32.169Z,19.27
2017-08-13T05:32:59.601Z,18.90
2017-08-13T05:35:27.024Z,15.77
2017-08-13T05:37:54.441Z,23.53
2017-08-13T05:40:21.876Z,14.03
2017-08-13T05:42:49.323Z,14.40
2017-08-13T05:45:16.805Z,17.13
2017-08-13T05:47:44.233Z,10.90
2017-08-13T05:50:11.660Z,15.30
2017-08-13T05:52:39.076Z,12.27
2017-08-13T05:55:06.574Z,14.50
2017-08-13T05:57:33.997Z,20.13
2017-08-13T06:00:01.424Z,14.80
2017-08-13T06:02:29.660Z,14.00
2017-08-13T06:04:57.125Z,11.47
2017-08-13T06:07:24.557Z,14.63
2017-08-13T06:09:51.988Z,19.77
2017-08-13T06:12:19.400Z,21.13
2017-08-13T06:14:46.851Z,17.53
2017-08-13T06:17:14.260Z,8.13
2017-08-13T06:19:41.689Z,18.33
2017-08-13T06:22:09.886Z,8.63
2017-08-13T06:24:37.317Z,10.13
2017-08-13T06:27:05.549Z,9.60
2017-08-13T06:29:32.989Z,13.33
2017-08-13T06:32:00.405Z,11.70
2017-08-13T06:34:28.605Z,15.43
2017-08-13T06:36:56.092Z,11.13
2017-08-13T06:39:23.532Z,11.37
2017-08-13T06:41:50.992Z,9.33
2017-08-13T06:44:18.413Z,5.50
2017-08-13T06:46:45.840Z,13.80
2017-08-13T06:49:13.260Z,6.93
2017-08-13T06:51:40.708Z,13.33
2017-08-13T06:54:08.118Z,9.10
2017-08-13T06:56:36.309Z,9.03
2017-08-13T06:59:03.734Z,9.13
2017-08-13T07:01:31.155Z,6.20
2017-08-13T07:03:58.577Z,13.83
2017-08-13T07:06:26.030Z,10.93
2017-08-13T07:08:54.224Z,10.53
2017-08-13T07:11:21.652Z,8.10
2017-08-13T07:13:49.862Z,8.37
2017-08-13T07:16:17.265Z,5.97
2017-08-13T07:18:44.703Z,14.90
2017-08-13T07:21:12.137Z,6.13
2017-08-13T07:23:39.582Z,9.77
2017-08-13T07:26:07.001Z,11.90
2017-08-13T07:28:35.217Z,6.67
2017-08-13T07:31:02.679Z,5.47
2017-08-13T07:33:30.125Z,9.13
2017-08-13T07:35:57.565Z,10.93
2017-08-13T07:38:24.984Z,11.20
2017-08-13T07:40:52.419Z,12.53
2017-08-13T07:43:19.847Z,6.23
2017-08-13T07:45:47.330Z,7.13
2017-08-13T07:48:14.760Z,6.10
2017-08-13T07:50:42.172Z,9.23
2017-08-13T07:53:10.391Z,6.67
2017-08-13T07:55:37.812Z,8.03
2017-08-13T07:58:06.024Z,5.90
2017-08-13T08:00:33.478Z,5.50
2017-08-13T08:03:00.885Z,15.03
2017-08-13T08:05:28.337Z,6.63
2017-08-13T08:07:55.749Z,6.53
2017-08-13T08:10:23.168Z,7.73
2017-08-13T08:12:50.614Z,6.27
2017-08-13T08:15:18.804Z,8.60
2017-08-13T08:17:46.221Z,5.33
2017-08-13T08:20:13.651Z,4.50
2017-08-13T08:22:41.068Z,8.57
2017-08-13T08:25:08.501Z,12.60
2017-08-13T08:27:35.912Z,7.70
2017-08-13T08:30:03.340Z,4.53
2017-08-13T08:32:30.820Z,7.13
2017-08-13T08:34:58.232Z,7.13
2017-08-13T08:37:26.432Z,5.07
2017-08-13T08:39:53.857Z,7.00
2017-08-13T08:42:21.283Z,5.33
2017-08-13T08:44:48.708Z,4.43
2017-08-13T08:47:16.128Z,5.20
2017-08-13T08:49:43.563Z,11.23
2017-08-13T08:52:10.991Z,2.50
2017-08-13T08:54:39.188Z,1.67
2017-08-13T08:57:06.607Z,6.13
2017-08-13T08:59:34.128Z,2.57
2017-08-13T09:02:01.540Z,3.37
2017-08-13T09:04:28.960Z,11.43
2017-08-13T09:06:56.393Z,2.40
2017-08-13T09:09:23.805Z,5.83
2017-08-13T09:11:51.234Z,6.90
2017-08-13T09:14:18.651Z,4.57
2017-08-13T09:16:46.086Z,8.07
2017-08-13T09:19:13.508Z,6.77
2017-08-13T09:21:41.708Z,5.40
2017-08-13T09:24:09.127Z,9.60
2017-08-13T09:26:37.335Z,6.63
2017-08-13T09:29:04.740Z,2.70
2017-08-13T09:31:32.174Z,4.20
2017-08-13T09:33:59.600Z,4.67
2017-08-13T09:36:27.090Z,4.43
2017-08-13T09:38:54.513Z,3.63
2017-08-13T09:41:21.945Z,3.97
2017-08-13T09:43:50.142Z,4.47
2017-08-13T09:46:17.556Z,2.07
2017-08-13T09:48:44.980Z,4.70
2017-08-13T09:51:12.395Z,2.60
2017-08-13T09:53:40.617Z,6.63
2017-08-13T09:56:08.021Z,3.10
2017-08-13T09:58:36.222Z,3.63
2017-08-13T10:01:03.641Z,7.17
2017-08-13T10:03:31.868Z,5.60
2017-08-13T10:05:59.284Z,3.50
2017-08-13T10:08:26.700Z,3.47
2017-08-13T10:10:54.125Z,2.80
2017-08-13T10:13:21.544Z,2.60
2017-08-13T10:15:48.963Z,2.30
2017-08-13T10:18:16.385Z,3.30
2017-08-13T10:20:43.860Z,6.93
2017-08-13T10:23:11.294Z,3.17
2017-08-13T10:25:38.701Z,3.20
2017-08-13T10:28:06.130Z,4.33
2017-08-13T10:30:33.562Z,4.93
2017-08-13T10:33:00.976Z,3.73
2017-08-13T10:35:29.197Z,2.60
2017-08-13T10:37:56.649Z,4.10
2017-08-13T10:40:24.061Z,3.00
2017-08-13T10:42:52.240Z,2.47
2017-08-13T10:45:19.664Z,1.40
2017-08-13T10:47:47.096Z,2.60
2017-08-13T10:50:14.521Z,2.03
2017-08-13T10:52:42.017Z,4.40
2017-08-13T10:55:09.436Z,2.70
2017-08-13T10:57:36.863Z,3.57
2017-08-13T11:00:04.291Z,7.30
2017-08-13T11:02:31.704Z,2.87
2017-08-13T11:04:59.137Z,2.50
2017-08-13T11:07:27.343Z,2.33
2017-08-13T11:09:54.824Z,4.50
2017-08-13T11:12:22.273Z,3.00
2017-08-13T11:14:49.699Z,2.20
2017-08-13T11:17:17.109Z,2.73
2017-08-13T11:19:44.535Z,2.40
2017-08-13T11:22:11.955Z,2.90
2017-08-13T11:24:40.136Z,3.37
2017-08-13T11:27:07.557Z,3.43
2017-08-13T11:29:34.989Z,2.17
2017-08-13T11:32:02.413Z,4.77
2017-08-13T11:34:29.828Z,5.07
2017-08-13T11:36:57.249Z,2.90
2017-08-13T11:39:24.674Z,3.20
2017-08-13T11:41:52.092Z,11.80
2017-08-13T11:44:19.516Z,4.47
2017-08-13T11:46:46.940Z,2.33
2017-08-13T11:49:14.373Z,3.10
2017-08-13T11:51:41.796Z,3.47
2017-08-13T11:54:09.223Z,4.70
2017-08-13T11:56:36.697Z,1.53
2017-08-13T11:59:04.121Z,1.97
2017-08-13T12:01:31.718Z,2.17
2017-08-13T12:03:59.124Z,3.70
2017-08-13T12:06:26.552Z,6.60
2017-08-13T12:08:53.985Z,4.57
2017-08-13T12:11:21.406Z,2.70
2017-08-13T12:13:48.821Z,2.93
2017-08-13T12:16:16.300Z,2.93
2017-08-13T12:18:43.716Z,3.50
2017-08-13T12:21:11.170Z,1.97
2017-08-13T12:23:38.572Z,2.33
2017-08-13T12:26:06.008Z,1.97
2017-08-13T12:28:33.449Z,2.23
2017-08-13T12:31:00.869Z,2.33
2017-08-13T12:33:28.287Z,2.60
2017-08-13T12:35:56.477Z,2.70
2017-08-13T12:38:23.900Z,5.07
2017-08-13T12:40:51.333Z,6.50
2017-08-13T12:43:18.760Z,5.43
2017-08-13T12:45:46.199Z,3.43
2017-08-13T12:48:14.361Z,3.70
2017-08-13T12:50:42.716Z,2.27
2017-08-13T12:53:10.229Z,2.17
2017-08-13T12:55:37.677Z,6.50
2017-08-13T12:58:05.088Z,3.20
2017-08-13T13:00:33.273Z,3.53
2017-08-13T13:03:00.692Z,5.70
2017-08-13T13:05:28.119Z,3.60
2017-08-13T13:07:55.553Z,3.97
2017-08-13T13:10:23.724Z,4.83
2017-08-13T13:12:51.164Z,5.83
2017-08-13T13:15:19.340Z,2.40
2017-08-13T13:17:47.527Z,3.43
2017-08-13T13:20:15.719Z,4.03
2017-08-13T13:22:43.148Z,3.27
2017-08-13T13:25:10.568Z,8.50
2017-08-13T13:27:37.998Z,4.90
2017-08-13T13:30:05.438Z,7.30
2017-08-13T13:32:32.868Z,4.13
2017-08-13T13:35:01.051Z,7.10
2017-08-13T13:37:28.472Z,4.37
2017-08-13T13:39:55.897Z,10.83
2017-08-13T13:42:23.317Z,5.20
2017-08-13T13:44:50.741Z,6.00
2017-08-13T13:47:18.160Z,5.50
2017-08-13T13:49:45.575Z,6.40
2017-08-13T13:52:13.757Z,5.77
2017-08-13T13:54:41.188Z,7.40
2017-08-13T13:57:09.377Z,3.90
2017-08-13T13:59:37.581Z,5.97
2017-08-13T14:02:05.001Z,3.67
2017-08-13T14:04:33.220Z,5.00
2017-08-13T14:07:00.640Z,4.73
2017-08-13T14:09:28.066Z,6.43
2017-08-13T14:11:55.479Z,9.80
2017-08-13T14:14:22.905Z,9.37
2017-08-13T14:16:51.081Z,5.50
2017-08-13T14:19:18.566Z,7.87
2017-08-13T14:21:45.993Z,9.77
2017-08-13T14:24:14.164Z,6.40
2017-08-13T14:26:41.596Z,3.30
2017-08-13T14:29:09.021Z,5.00
2017-08-13T14:31:36.433Z,4.50
2017-08-13T14:34:03.865Z,6.63
2017-08-13T14:36:32.052Z,4.53
2017-08-13T14:39:00.241Z,5.30
2017-08-13T14:41:27.681Z,4.03
2017-08-13T14:43:55.861Z,4.60
2017-08-13T14:46:23.296Z,7.67
2017-08-13T14:48:50.727Z,4.43
2017-08-13T14:51:18.132Z,7.77
2017-08-13T14:53:45.600Z,8.17
2017-08-13T14:56:13.052Z,11.00
2017-08-13T14:58:40.508Z,6.90
2017-08-13T15:01:07.934Z,7.47
2017-08-13T15:03:35.349Z,7.07
2017-08-13T15:06:02.768Z,4.83
2017-08-13T15:08:30.225Z,12.33
2017-08-13T15:10:57.664Z,5.90
2017-08-13T15:13:25.084Z,6.20
2017-08-13T15:15:52.518Z,5.83
2017-08-13T15:20:53.779Z,8.67
2017-08-13T15:23:22.024Z,4.80
2017-08-13T15:25:49.451Z,6.10
2017-08-13T15:28:17.657Z,7.63
2017-08-13T15:30:45.092Z,6.20
2017-08-13T15:33:13.273Z,6.70
2017-08-13T15:35:40.741Z,4.60
2017-08-13T15:38:08.133Z,4.90
2017-08-13T15:40:35.556Z,6.00
2017-08-13T15:43:02.996Z,6.20
2017-08-13T15:45:30.476Z,7.67
2017-08-13T15:47:57.942Z,10.13
2017-08-13T15:50:25.382Z,4.87
2017-08-13T15:52:52.835Z,6.93
2017-08-13T15:55:20.252Z,10.43
2017-08-13T15:57:48.453Z,7.07
2017-08-13T16:00:16.026Z,7.67
2017-08-13T16:02:43.444Z,11.97
2017-08-13T16:05:10.868Z,8.13
2017-08-13T16:07:38.280Z,9.10
2017-08-13T16:10:05.699Z,6.77
2017-08-13T16:12:33.885Z,5.37
2017-08-13T16:15:01.308Z,8.57
2017-08-13T16:17:28.772Z,5.77
2017-08-13T16:19:56.202Z,8.80
2017-08-13T16:22:23.667Z,6.40
2017-08-13T16:24:51.101Z,8.10
2017-08-13T16:27:18.528Z,11.07
2017-08-13T16:29:45.973Z,8.50
2017-08-13T16:32:14.156Z,8.30
2017-08-13T16:34:41.580Z,10.47
2017-08-13T16:37:09.001Z,7.40
2017-08-13T16:39:36.456Z,8.20
2017-08-13T16:42:03.887Z,4.93
2017-08-13T16:44:31.304Z,7.03
2017-08-13T16:46:58.762Z,6.13
2017-08-13T16:49:26.196Z,5.93
2017-08-13T16:51:53.621Z,4.00
2017-08-13T16:54:21.031Z,6.27
2017-08-13T16:56:48.455Z,6.37
2017-08-13T16:59:15.872Z,5.10
2017-08-13T17:01:43.303Z,9.67
2017-08-13T17:04:11.482Z,7.07
2017-08-13T17:06:39.665Z,8.37
2017-08-13T17:09:07.156Z,5.93
2017-08-13T17:11:34.557Z,4.17
2017-08-13T17:14:02.757Z,4.87
2017-08-13T17:16:30.192Z,5.50
2017-08-13T17:18:58.384Z,4.93
2017-08-13T17:21:25.809Z,4.57
2017-08-13T17:23:53.228Z,4.53
2017-08-13T17:26:20.652Z,4.30
2017-08-13T17:28:48.085Z,5.60
2017-08-13T17:31:15.501Z,6.00
2017-08-13T17:33:42.928Z,4.07
2017-08-13T17:36:10.341Z,9.70
2017-08-13T17:38:37.840Z,3.90
2017-08-13T17:41:05.268Z,2.93
2017-08-13T17:43:32.684Z,4.13
2017-08-13T17:46:00.124Z,3.87
2017-08-13T17:48:27.532Z,6.70
2017-08-13T17:50:55.733Z,8.43
2017-08-13T17:53:23.900Z,3.17
2017-08-13T17:55:51.323Z,6.97
2017-08-13T17:58:18.756Z,4.60
2017-08-13T18:00:46.185Z,5.53
2017-08-13T18:03:13.672Z,5.93
2017-08-13T18:05:41.120Z,3.27
2017-08-13T18:08:09.315Z,6.97
2017-08-13T18:10:36.751Z,4.40
2017-08-13T18:13:04.163Z,4.83
2017-08-13T18:15:31.589Z,5.47
2017-08-13T18:17:59.042Z,5.50
2017-08-13T18:20:26.477Z,3.40
2017-08-13T18:22:53.911Z,3.10
2017-08-13T18:25:21.333Z,10.00
2017-08-13T18:27:49.537Z,9.30
2017-08-13T18:30:16.969Z,5.03
2017-08-13T18:32:44.392Z,5.60
2017-08-13T18:35:11.829Z,5.00
2017-08-13T18:37:39.240Z,5.27
2017-08-13T18:40:06.714Z,7.40
2017-08-13T18:42:34.153Z,4.77
2017-08-13T18:45:01.580Z,5.10
2017-08-13T18:47:29.783Z,6.07
2017-08-13T18:49:57.197Z,6.53
2017-08-13T18:52:24.723Z,9.10
2017-08-13T18:54:52.164Z,4.07
2017-08-13T18:57:19.596Z,8.60
2017-08-13T18:59:47.770Z,7.07
2017-08-13T19:02:15.201Z,8.30
2017-08-13T19:04:42.638Z,5.27
2017-08-13T19:07:10.073Z,4.70
2017-08-13T19:09:37.492Z,4.90
2017-08-13T19:12:04.910Z,6.80
2017-08-13T19:14:32.333Z,10.83
2017-08-13T19:16:59.752Z,6.60
2017-08-13T19:19:27.944Z,4.43
2017-08-13T19:21:55.377Z,5.90
2017-08-13T19:24:23.577Z,5.33
2017-08-13T19:26:51.749Z,7.70
2017-08-13T19:29:19.182Z,8.33
2017-08-13T19:31:47.374Z,8.70
2017-08-13T19:34:14.796Z,15.50
2017-08-13T19:36:42.211Z,9.63
2017-08-13T19:39:09.668Z,8.83
2017-08-13T19:41:37.096Z,10.00
2017-08-13T19:44:04.526Z,8.13
2017-08-13T19:46:31.941Z,9.07
2017-08-13T19:48:59.368Z,15.67
2017-08-13T19:51:26.839Z,10.47
2017-08-13T19:53:54.246Z,10.37
2017-08-13T19:56:22.430Z,11.27
2017-08-13T19:58:50.628Z,12.47
2017-08-13T20:01:18.061Z,6.80
2017-08-13T20:03:45.508Z,9.83
2017-08-13T20:06:12.916Z,9.73
2017-08-13T20:08:40.344Z,15.20
2017-08-13T20:11:07.804Z,11.73
2017-08-13T20:13:35.284Z,11.70
2017-08-13T20:16:02.769Z,21.57
2017-08-13T20:18:30.401Z,11.87
2017-08-13T20:20:57.977Z,17.50
2017-08-13T20:23:25.531Z,15.20
2017-08-13T20:25:53.111Z,11.93
2017-08-13T20:28:20.618Z,14.33
2017-08-13T20:30:48.495Z,15.07
2017-08-13T20:33:15.925Z,11.80
2017-08-13T20:35:43.379Z,14.33
2017-08-13T20:38:10.924Z,13.83
2017-08-13T20:40:39.141Z,14.60
2017-08-13T20:43:06.622Z,12.20
2017-08-13T20:45:34.052Z,12.20
2017-08-13T20:50:54.496Z,22.20
2017-08-13T20:53:22.666Z,13.50
2017-08-13T20:55:50.089Z,15.90
2017-08-13T20:58:17.499Z,16.47
2017-08-13T21:00:44.915Z,16.27
2017-08-13T21:03:12.335Z,11.30
2017-08-13T21:05:39.747Z,16.73
2017-08-13T21:08:07.186Z,13.70
2017-08-13T21:10:34.601Z,13.50
2017-08-13T21:13:02.028Z,12.40
2017-08-13T21:15:30.020Z,14.30
2017-08-13T21:17:57.437Z,12.43
2017-08-13T21:20:25.623Z,14.63
2017-08-13T21:22:53.041Z,11.30
2017-08-13T21:25:20.454Z,16.30
2017-08-13T21:27:47.858Z,12.97
2017-08-13T21:30:15.365Z,14.60
2017-08-13T21:32:42.776Z,11.77
2017-08-13T21:35:10.192Z,17.40
2017-08-13T21:37:37.603Z,15.97
2017-08-13T21:40:05.784Z,14.67
2017-08-13T21:42:33.203Z,13.93
2017-08-13T21:45:00.715Z,15.87
2017-08-13T21:47:28.150Z,12.17
2017-08-13T21:49:56.332Z,14.93
2017-08-13T21:52:23.772Z,16.27
2017-08-13T21:54:51.953Z,20.13
2017-08-13T21:57:19.979Z,17.03
2017-08-13T21:59:47.406Z,15.40
2017-08-13T22:02:14.818Z,14.17
2017-08-13T22:04:43.028Z,13.07
2017-08-13T22:07:10.435Z,13.17
2017-08-13T22:09:37.851Z,14.10
2017-08-13T22:12:05.258Z,18.03
2017-08-13T22:14:33.274Z,15.67
2017-08-13T22:17:00.693Z,18.77
2017-08-13T22:19:28.107Z,16.63
2017-08-13T22:21:55.512Z,23.03
2017-08-13T22:24:22.985Z,24.63
2017-08-13T22:26:50.397Z,15.63
2017-08-13T22:29:18.577Z,15.00
2017-08-13T22:31:46.779Z,20.93
2017-08-13T22:34:14.241Z,19.10
2017-08-13T22:36:41.693Z,17.07
2017-08-13T22:39:09.121Z,15.27
2017-08-13T22:44:11.187Z,15.73
2017-08-13T22:46:39.403Z,16.93
2017-08-13T22:49:06.803Z,13.40
2017-08-13T22:51:34.223Z,14.90
2017-08-13T22:54:01.637Z,11.33
2017-08-13T22:56:29.808Z,14.67
2017-08-13T22:58:58.248Z,19.03
2017-08-13T23:01:25.679Z,17.50
2017-08-13T23:03:53.095Z,14.97
2017-08-13T23:06:21.278Z,15.07
2017-08-13T23:08:48.691Z,13.00
2017-08-13T23:11:16.140Z,16.10
2017-08-13T23:13:43.559Z,17.20
2017-08-13T23:16:10.966Z,15.47
2017-08-13T23:18:38.388Z,15.47
2017-08-13T23:21:05.957Z,16.50
2017-08-13T23:23:33.353Z,17.90
2017-08-13T23:26:00.767Z,14.63
2017-08-13T23:28:28.219Z,18.20
2017-08-13T23:30:55.635Z,15.53
2017-08-13T23:33:23.826Z,19.47
2017-08-13T23:35:51.232Z,15.27
2017-08-13T23:38:18.987Z,15.17
2017-08-13T23:40:46.403Z,21.20
2017-08-13T23:43:13.831Z,19.80
2017-08-13T23:45:41.246Z,17.57
2017-08-13T23:48:08.670Z,19.53
2017-08-13T23:50:36.068Z,16.73
2017-08-13T23:53:04.564Z,15.53
2017-08-13T23:55:32.087Z,16.40
2017-08-13T23:57:59.492Z,16.37
